sensor_id;sensor_type;location;lat;lon;timestamp;temperature;humidity
20528;DHT22;23612;50.894;10.700;2023-02-01T00:01:45;3.30;99.90
20528;DHT22;23612;50.894;10.700;2023-02-01T00:04:11;3.30;99.90
20528;DHT22;23612;50.894;10.700;2023-02-01T00:06:37;3.30;99.90
20528;DHT22;23612;50.894;10.700;2023-02-01T00:09:03;3.30;99.90
20528;DHT22;23612;50.894;10.700;2023-02-01T00:11:29;3.40;99.90
20528;DHT22;23612;50.894;10.700;2023-02-01T00:13:54;3.40;99.90
20528;DHT22;23612;50.894;10.700;2023-02-01T00:16:22;3.40;99.90
20528;DHT22;23612;50.894;10.700;2023-02-01T00:18:50;3.40;99.90
20528;DHT22;23612;50.894;10.700;2023-02-01T00:21:18;3.50;99.90
20528;DHT22;23612;50.894;10.700;2023-02-01T00:23:43;3.60;99.90
20528;DHT22;23612;50.894;10.700;2023-02-01T00:26:14;3.60;99.90
20528;DHT22;23612;50.894;10.700;2023-02-01T00:28:41;3.60;99.90
20528;DHT22;23612;50.894;10.700;2023-02-01T00:31:07;3.50;99.90
20528;DHT22;23612;50.894;10.700;2023-02-01T00:33:33;3.50;99.90
20528;DHT22;23612;50.894;10.700;2023-02-01T00:36:00;3.50;99.90
20528;DHT22;23612;50.894;10.700;2023-02-01T00:38:27;3.40;99.90
20528;DHT22;23612;50.894;10.700;2023-02-01T00:40:53;3.40;99.90
20528;DHT22;23612;50.894;10.700;2023-02-01T00:43:18;3.40;99.90
20528;DHT22;23612;50.894;10.700;2023-02-01T00:45:48;3.40;99.90
20528;DHT22;23612;50.894;10.700;2023-02-01T00:48:13;3.40;99.90
20528;DHT22;23612;50.894;10.700;2023-02-01T00:50:42;3.50;99.90
20528;DHT22;23612;50.894;10.700;2023-02-01T00:53:09;3.40;99.90
20528;DHT22;23612;50.894;10.700;2023-02-01T00:55:34;3.50;99.90
20528;DHT22;23612;50.894;10.700;2023-02-01T00:58:00;3.40;99.90
20528;DHT22;23612;50.894;10.700;2023-02-01T01:00:25;3.50;99.90
20528;DHT22;23612;50.894;10.700;2023-02-01T01:02:51;3.50;99.90
20528;DHT22;23612;50.894;10.700;2023-02-01T01:05:17;3.60;99.90
20528;DHT22;23612;50.894;10.700;2023-02-01T01:07:42;3.70;99.90
20528;DHT22;23612;50.894;10.700;2023-02-01T01:10:08;3.70;99.90
20528;DHT22;23612;50.894;10.700;2023-02-01T01:12:33;3.80;99.90
20528;DHT22;23612;50.894;10.700;2023-02-01T01:14:59;3.80;99.90
20528;DHT22;23612;50.894;10.700;2023-02-01T01:17:24;3.90;99.90
20528;DHT22;23612;50.894;10.700;2023-02-01T01:19:50;3.90;99.90
20528;DHT22;23612;50.894;10.700;2023-02-01T01:22:15;4.00;99.90
20528;DHT22;23612;50.894;10.700;2023-02-01T01:24:41;4.00;99.90
20528;DHT22;23612;50.894;10.700;2023-02-01T01:27:06;4.00;99.90
20528;DHT22;23612;50.894;10.700;2023-02-01T01:29:32;4.00;99.90
20528;DHT22;23612;50.894;10.700;2023-02-01T01:31:57;4.00;99.90
20528;DHT22;23612;50.894;10.700;2023-02-01T01:34:23;4.00;99.90
20528;DHT22;23612;50.894;10.700;2023-02-01T01:36:48;4.00;99.90
20528;DHT22;23612;50.894;10.700;2023-02-01T01:39:14;3.90;99.90
20528;DHT22;23612;50.894;10.700;2023-02-01T01:41:39;3.80;99.90
20528;DHT22;23612;50.894;10.700;2023-02-01T01:44:53;3.80;99.90
20528;DHT22;23612;50.894;10.700;2023-02-01T01:46:51;3.80;99.90
20528;DHT22;23612;50.894;10.700;2023-02-01T01:49:22;3.70;99.90
20528;DHT22;23612;50.894;10.700;2023-02-01T01:51:58;3.70;99.90
20528;DHT22;23612;50.894;10.700;2023-02-01T01:54:27;3.60;99.90
20528;DHT22;23612;50.894;10.700;2023-02-01T01:56:58;3.60;99.90
20528;DHT22;23612;50.894;10.700;2023-02-01T01:59:24;3.60;99.90
20528;DHT22;23612;50.894;10.700;2023-02-01T02:01:51;3.60;99.90
20528;DHT22;23612;50.894;10.700;2023-02-01T02:04:17;3.60;99.90
20528;DHT22;23612;50.894;10.700;2023-02-01T02:06:50;3.60;99.90
20528;DHT22;23612;50.894;10.700;2023-02-01T02:09:16;3.50;99.90
20528;DHT22;23612;50.894;10.700;2023-02-01T02:11:42;3.60;99.90
20528;DHT22;23612;50.894;10.700;2023-02-01T02:14:09;3.50;99.90
20528;DHT22;23612;50.894;10.700;2023-02-01T02:17:13;3.60;99.90
20528;DHT22;23612;50.894;10.700;2023-02-01T02:34:17;3.60;99.90
20528;DHT22;23612;50.894;10.700;2023-02-01T02:37:00;3.70;99.90
20528;DHT22;23612;50.894;10.700;2023-02-01T02:39:41;3.70;99.90
20528;DHT22;23612;50.894;10.700;2023-02-01T02:43:02;3.80;99.90
20528;DHT22;23612;50.894;10.700;2023-02-01T02:45:32;3.80;99.90
20528;DHT22;23612;50.894;10.700;2023-02-01T02:48:44;3.80;99.90
20528;DHT22;23612;50.894;10.700;2023-02-01T02:51:24;3.80;99.90
20528;DHT22;23612;50.894;10.700;2023-02-01T02:54:15;3.80;99.90
20528;DHT22;23612;50.894;10.700;2023-02-01T02:57:04;3.90;99.90
20528;DHT22;23612;50.894;10.700;2023-02-01T02:59:51;3.80;99.90
20528;DHT22;23612;50.894;10.700;2023-02-01T03:02:37;3.70;99.90
20528;DHT22;23612;50.894;10.700;2023-02-01T03:05:22;3.60;99.90
20528;DHT22;23612;50.894;10.700;2023-02-01T03:08:03;3.50;99.90
20528;DHT22;23612;50.894;10.700;2023-02-01T03:13:14;3.20;99.90
20528;DHT22;23612;50.894;10.700;2023-02-01T03:18:48;3.10;99.90
20528;DHT22;23612;50.894;10.700;2023-02-01T03:21:24;3.10;99.90
20528;DHT22;23612;50.894;10.700;2023-02-01T03:23:54;3.00;99.90
20528;DHT22;23612;50.894;10.700;2023-02-01T03:26:22;2.90;99.90
20528;DHT22;23612;50.894;10.700;2023-02-01T03:28:54;2.90;99.90
20528;DHT22;23612;50.894;10.700;2023-02-01T03:31:22;2.80;99.90
20528;DHT22;23612;50.894;10.700;2023-02-01T03:33:48;2.90;99.90
20528;DHT22;23612;50.894;10.700;2023-02-01T03:36:30;2.90;99.90
20528;DHT22;23612;50.894;10.700;2023-02-01T03:39:09;2.90;99.90
20528;DHT22;23612;50.894;10.700;2023-02-01T03:41:42;3.00;99.90
20528;DHT22;23612;50.894;10.700;2023-02-01T03:44:41;3.10;99.90
20528;DHT22;23612;50.894;10.700;2023-02-01T03:47:18;3.20;99.90
20528;DHT22;23612;50.894;10.700;2023-02-01T03:50:24;3.40;99.90
20528;DHT22;23612;50.894;10.700;2023-02-01T03:53:09;3.50;99.90
20528;DHT22;23612;50.894;10.700;2023-02-01T03:55:36;3.60;99.90
20528;DHT22;23612;50.894;10.700;2023-02-01T03:58:11;3.60;99.90
20528;DHT22;23612;50.894;10.700;2023-02-01T04:00:38;3.60;99.90
20528;DHT22;23612;50.894;10.700;2023-02-01T04:03:05;3.60;99.90
20528;DHT22;23612;50.894;10.700;2023-02-01T04:05:31;3.60;99.90
20528;DHT22;23612;50.894;10.700;2023-02-01T04:07:57;3.60;99.90
20528;DHT22;23612;50.894;10.700;2023-02-01T04:10:23;3.70;99.90
20528;DHT22;23612;50.894;10.700;2023-02-01T04:12:49;3.60;99.90
20528;DHT22;23612;50.894;10.700;2023-02-01T04:15:14;3.60;99.90
20528;DHT22;23612;50.894;10.700;2023-02-01T04:17:40;3.60;99.90
20528;DHT22;23612;50.894;10.700;2023-02-01T04:20:06;3.60;99.90
20528;DHT22;23612;50.894;10.700;2023-02-01T04:22:31;3.60;99.90
20528;DHT22;23612;50.894;10.700;2023-02-01T04:24:57;3.60;99.90
20528;DHT22;23612;50.894;10.700;2023-02-01T04:27:22;3.60;99.90
20528;DHT22;23612;50.894;10.700;2023-02-01T04:29:48;3.60;99.90
20528;DHT22;23612;50.894;10.700;2023-02-01T04:32:17;3.60;99.90
20528;DHT22;23612;50.894;10.700;2023-02-01T04:34:42;3.60;99.90
20528;DHT22;23612;50.894;10.700;2023-02-01T04:37:08;3.60;99.90
20528;DHT22;23612;50.894;10.700;2023-02-01T04:39:34;3.60;99.90
20528;DHT22;23612;50.894;10.700;2023-02-01T04:41:59;3.70;99.90
20528;DHT22;23612;50.894;10.700;2023-02-01T04:44:24;3.70;99.90
20528;DHT22;23612;50.894;10.700;2023-02-01T04:46:50;3.70;99.90
20528;DHT22;23612;50.894;10.700;2023-02-01T04:49:16;3.70;99.90
20528;DHT22;23612;50.894;10.700;2023-02-01T04:51:41;3.80;99.90
20528;DHT22;23612;50.894;10.700;2023-02-01T04:54:07;3.80;99.90
20528;DHT22;23612;50.894;10.700;2023-02-01T04:56:33;3.80;99.90
20528;DHT22;23612;50.894;10.700;2023-02-01T04:59:02;3.80;99.90
20528;DHT22;23612;50.894;10.700;2023-02-01T05:01:28;3.80;99.90
20528;DHT22;23612;50.894;10.700;2023-02-01T05:03:54;3.80;99.90
20528;DHT22;23612;50.894;10.700;2023-02-01T05:06:20;3.80;99.90
20528;DHT22;23612;50.894;10.700;2023-02-01T05:08:45;3.80;99.90
20528;DHT22;23612;50.894;10.700;2023-02-01T05:11:11;3.80;99.90
20528;DHT22;23612;50.894;10.700;2023-02-01T05:13:56;3.80;99.90
20528;DHT22;23612;50.894;10.700;2023-02-01T05:16:22;3.80;99.90
20528;DHT22;23612;50.894;10.700;2023-02-01T05:18:48;3.80;99.90
20528;DHT22;23612;50.894;10.700;2023-02-01T05:21:13;3.80;99.90
20528;DHT22;23612;50.894;10.700;2023-02-01T05:23:39;3.80;99.90
20528;DHT22;23612;50.894;10.700;2023-02-01T05:26:23;3.80;99.90
20528;DHT22;23612;50.894;10.700;2023-02-01T05:28:49;3.90;99.90
20528;DHT22;23612;50.894;10.700;2023-02-01T05:31:15;3.90;99.90
20528;DHT22;23612;50.894;10.700;2023-02-01T05:33:40;3.80;99.90
20528;DHT22;23612;50.894;10.700;2023-02-01T05:36:06;3.80;99.90
20528;DHT22;23612;50.894;10.700;2023-02-01T05:38:32;3.80;99.90
20528;DHT22;23612;50.894;10.700;2023-02-01T05:40:58;3.70;99.90
20528;DHT22;23612;50.894;10.700;2023-02-01T05:43:23;3.70;99.90
20528;DHT22;23612;50.894;10.700;2023-02-01T05:45:49;3.70;99.90
20528;DHT22;23612;50.894;10.700;2023-02-01T05:48:14;3.80;99.90
20528;DHT22;23612;50.894;10.700;2023-02-01T05:50:40;3.80;99.90
20528;DHT22;23612;50.894;10.700;2023-02-01T05:53:05;3.80;99.90
20528;DHT22;23612;50.894;10.700;2023-02-01T05:55:31;3.80;99.90
20528;DHT22;23612;50.894;10.700;2023-02-01T05:57:57;3.80;99.90
20528;DHT22;23612;50.894;10.700;2023-02-01T06:00:22;3.80;99.90
20528;DHT22;23612;50.894;10.700;2023-02-01T06:02:48;3.80;99.90
20528;DHT22;23612;50.894;10.700;2023-02-01T06:05:13;3.80;99.90
20528;DHT22;23612;50.894;10.700;2023-02-01T06:07:39;3.70;99.90
20528;DHT22;23612;50.894;10.700;2023-02-01T06:10:05;3.80;99.90
20528;DHT22;23612;50.894;10.700;2023-02-01T06:12:31;3.70;99.90
20528;DHT22;23612;50.894;10.700;2023-02-01T06:14:57;3.60;99.90
20528;DHT22;23612;50.894;10.700;2023-02-01T06:17:23;3.60;99.90
20528;DHT22;23612;50.894;10.700;2023-02-01T06:19:49;3.60;99.90
20528;DHT22;23612;50.894;10.700;2023-02-01T06:22:14;3.60;99.90
20528;DHT22;23612;50.894;10.700;2023-02-01T06:24:40;3.60;99.90
20528;DHT22;23612;50.894;10.700;2023-02-01T06:27:06;3.70;99.90
20528;DHT22;23612;50.894;10.700;2023-02-01T06:29:32;3.70;99.90
20528;DHT22;23612;50.894;10.700;2023-02-01T06:31:58;3.80;99.90
20528;DHT22;23612;50.894;10.700;2023-02-01T06:34:24;3.90;99.90
20528;DHT22;23612;50.894;10.700;2023-02-01T06:36:50;3.90;99.90
20528;DHT22;23612;50.894;10.700;2023-02-01T06:39:15;3.90;99.90
20528;DHT22;23612;50.894;10.700;2023-02-01T06:41:50;3.90;99.90
20528;DHT22;23612;50.894;10.700;2023-02-01T06:44:16;3.90;99.90
20528;DHT22;23612;50.894;10.700;2023-02-01T06:46:42;3.90;99.90
20528;DHT22;23612;50.894;10.700;2023-02-01T06:49:07;3.90;99.90
20528;DHT22;23612;50.894;10.700;2023-02-01T06:51:34;3.90;99.90
20528;DHT22;23612;50.894;10.700;2023-02-01T06:54:00;3.90;99.90
20528;DHT22;23612;50.894;10.700;2023-02-01T06:56:26;3.90;99.90
20528;DHT22;23612;50.894;10.700;2023-02-01T06:58:52;3.90;99.90
20528;DHT22;23612;50.894;10.700;2023-02-01T07:01:18;3.90;99.90
20528;DHT22;23612;50.894;10.700;2023-02-01T07:03:50;3.80;99.90
20528;DHT22;23612;50.894;10.700;2023-02-01T07:06:19;3.80;99.90
20528;DHT22;23612;50.894;10.700;2023-02-01T07:08:44;3.90;99.90
20528;DHT22;23612;50.894;10.700;2023-02-01T07:11:12;3.90;99.90
20528;DHT22;23612;50.894;10.700;2023-02-01T07:13:39;3.90;99.90
20528;DHT22;23612;50.894;10.700;2023-02-01T07:16:06;3.90;99.90
20528;DHT22;23612;50.894;10.700;2023-02-01T07:18:33;3.90;99.90
20528;DHT22;23612;50.894;10.700;2023-02-01T07:20:59;3.90;99.90
20528;DHT22;23612;50.894;10.700;2023-02-01T07:23:26;3.90;99.90
20528;DHT22;23612;50.894;10.700;2023-02-01T07:25:56;4.00;99.90
20528;DHT22;23612;50.894;10.700;2023-02-01T07:28:22;4.00;99.90
20528;DHT22;23612;50.894;10.700;2023-02-01T07:30:48;4.10;99.90
20528;DHT22;23612;50.894;10.700;2023-02-01T07:33:20;4.10;99.90
20528;DHT22;23612;50.894;10.700;2023-02-01T07:35:47;4.10;99.90
20528;DHT22;23612;50.894;10.700;2023-02-01T07:38:13;4.20;99.90
20528;DHT22;23612;50.894;10.700;2023-02-01T07:40:40;4.20;99.90
20528;DHT22;23612;50.894;10.700;2023-02-01T07:43:05;4.20;99.90
20528;DHT22;23612;50.894;10.700;2023-02-01T07:45:35;4.20;99.90
20528;DHT22;23612;50.894;10.700;2023-02-01T07:48:00;4.20;99.90
20528;DHT22;23612;50.894;10.700;2023-02-01T07:50:26;4.20;99.90
20528;DHT22;23612;50.894;10.700;2023-02-01T07:52:52;4.30;99.90
20528;DHT22;23612;50.894;10.700;2023-02-01T07:55:21;4.20;99.90
20528;DHT22;23612;50.894;10.700;2023-02-01T07:57:47;4.30;99.90
20528;DHT22;23612;50.894;10.700;2023-02-01T08:00:13;4.30;99.90
20528;DHT22;23612;50.894;10.700;2023-02-01T08:02:58;4.30;99.90
20528;DHT22;23612;50.894;10.700;2023-02-01T08:05:24;4.30;99.90
20528;DHT22;23612;50.894;10.700;2023-02-01T08:07:50;4.20;99.90
20528;DHT22;23612;50.894;10.700;2023-02-01T08:10:17;4.20;99.90
20528;DHT22;23612;50.894;10.700;2023-02-01T08:12:43;4.20;99.90
20528;DHT22;23612;50.894;10.700;2023-02-01T08:15:15;4.20;99.90
20528;DHT22;23612;50.894;10.700;2023-02-01T08:17:51;4.20;99.90
20528;DHT22;23612;50.894;10.700;2023-02-01T08:20:17;4.30;99.90
20528;DHT22;23612;50.894;10.700;2023-02-01T08:22:43;4.30;99.90
20528;DHT22;23612;50.894;10.700;2023-02-01T08:25:09;4.30;99.90
20528;DHT22;23612;50.894;10.700;2023-02-01T08:27:36;4.30;99.90
20528;DHT22;23612;50.894;10.700;2023-02-01T08:30:01;4.40;99.90
20528;DHT22;23612;50.894;10.700;2023-02-01T08:32:27;4.40;99.90
20528;DHT22;23612;50.894;10.700;2023-02-01T08:34:53;4.40;99.90
20528;DHT22;23612;50.894;10.700;2023-02-01T08:37:19;4.40;99.90
20528;DHT22;23612;50.894;10.700;2023-02-01T08:39:44;4.30;99.90
20528;DHT22;23612;50.894;10.700;2023-02-01T08:42:10;4.20;99.90
20528;DHT22;23612;50.894;10.700;2023-02-01T08:44:55;4.10;99.90
20528;DHT22;23612;50.894;10.700;2023-02-01T08:47:21;4.00;99.90
20528;DHT22;23612;50.894;10.700;2023-02-01T08:49:46;3.80;99.90
20528;DHT22;23612;50.894;10.700;2023-02-01T08:52:12;3.80;99.90
20528;DHT22;23612;50.894;10.700;2023-02-01T08:54:37;3.90;99.90
20528;DHT22;23612;50.894;10.700;2023-02-01T08:57:04;3.80;99.90
20528;DHT22;23612;50.894;10.700;2023-02-01T08:59:30;3.60;99.90
20528;DHT22;23612;50.894;10.700;2023-02-01T09:01:55;3.60;99.90
20528;DHT22;23612;50.894;10.700;2023-02-01T09:04:21;3.50;99.90
20528;DHT22;23612;50.894;10.700;2023-02-01T09:06:46;3.50;99.90
20528;DHT22;23612;50.894;10.700;2023-02-01T09:09:12;3.60;99.90
20528;DHT22;23612;50.894;10.700;2023-02-01T09:11:37;3.50;99.90
20528;DHT22;23612;50.894;10.700;2023-02-01T09:14:03;3.50;99.90
20528;DHT22;23612;50.894;10.700;2023-02-01T09:16:28;3.50;99.90
20528;DHT22;23612;50.894;10.700;2023-02-01T09:18:54;3.40;99.90
20528;DHT22;23612;50.894;10.700;2023-02-01T09:21:20;3.50;99.90
20528;DHT22;23612;50.894;10.700;2023-02-01T09:23:45;3.60;99.90
20528;DHT22;23612;50.894;10.700;2023-02-01T09:26:13;3.70;99.90
20528;DHT22;23612;50.894;10.700;2023-02-01T09:28:39;3.80;99.90
20528;DHT22;23612;50.894;10.700;2023-02-01T09:31:05;3.90;99.90
20528;DHT22;23612;50.894;10.700;2023-02-01T09:33:31;4.00;99.90
20528;DHT22;23612;50.894;10.700;2023-02-01T09:36:02;4.00;99.90
20528;DHT22;23612;50.894;10.700;2023-02-01T09:38:28;4.10;99.90
20528;DHT22;23612;50.894;10.700;2023-02-01T09:40:54;4.10;99.90
20528;DHT22;23612;50.894;10.700;2023-02-01T09:43:28;4.10;99.90
20528;DHT22;23612;50.894;10.700;2023-02-01T09:48:42;4.00;99.90
20528;DHT22;23612;50.894;10.700;2023-02-01T09:51:16;4.10;99.90
20528;DHT22;23612;50.894;10.700;2023-02-01T09:53:48;4.00;99.90
20528;DHT22;23612;50.894;10.700;2023-02-01T09:56:22;4.10;99.90
20528;DHT22;23612;50.894;10.700;2023-02-01T10:01:24;4.30;99.90
20528;DHT22;23612;50.894;10.700;2023-02-01T10:03:57;4.40;99.90
20528;DHT22;23612;50.894;10.700;2023-02-01T10:06:48;4.40;99.90
20528;DHT22;23612;50.894;10.700;2023-02-01T10:17:56;4.80;99.90
20528;DHT22;23612;50.894;10.700;2023-02-01T10:26:20;4.90;99.90
20528;DHT22;23612;50.894;10.700;2023-02-01T10:28:50;4.90;99.90
20528;DHT22;23612;50.894;10.700;2023-02-01T10:31:16;5.10;99.90
20528;DHT22;23612;50.894;10.700;2023-02-01T10:33:48;5.40;99.90
20528;DHT22;23612;50.894;10.700;2023-02-01T10:36:40;5.50;99.90
20528;DHT22;23612;50.894;10.700;2023-02-01T10:39:06;5.60;99.90
20528;DHT22;23612;50.894;10.700;2023-02-01T10:41:36;5.50;99.90
20528;DHT22;23612;50.894;10.700;2023-02-01T10:44:15;5.40;99.90
20528;DHT22;23612;50.894;10.700;2023-02-01T10:46:41;5.30;99.90
20528;DHT22;23612;50.894;10.700;2023-02-01T10:49:34;5.30;99.90
20528;DHT22;23612;50.894;10.700;2023-02-01T10:52:20;5.30;99.90
20528;DHT22;23612;50.894;10.700;2023-02-01T10:54:46;5.30;99.90
20528;DHT22;23612;50.894;10.700;2023-02-01T10:59:46;5.20;99.90
20528;DHT22;23612;50.894;10.700;2023-02-01T11:02:30;5.30;99.90
20528;DHT22;23612;50.894;10.700;2023-02-01T11:05:05;5.20;99.90
20528;DHT22;23612;50.894;10.700;2023-02-01T11:07:35;5.20;99.90
20528;DHT22;23612;50.894;10.700;2023-02-01T11:10:01;5.20;99.90
20528;DHT22;23612;50.894;10.700;2023-02-01T11:15:18;5.10;99.90
20528;DHT22;23612;50.894;10.700;2023-02-01T11:17:46;5.10;99.90
20528;DHT22;23612;50.894;10.700;2023-02-01T11:20:18;5.20;99.90
20528;DHT22;23612;50.894;10.700;2023-02-01T11:22:48;5.20;99.90
20528;DHT22;23612;50.894;10.700;2023-02-01T11:25:17;5.10;99.90
20528;DHT22;23612;50.894;10.700;2023-02-01T11:27:43;5.10;99.90
20528;DHT22;23612;50.894;10.700;2023-02-01T11:30:36;5.10;99.90
20528;DHT22;23612;50.894;10.700;2023-02-01T11:33:04;5.10;99.90
20528;DHT22;23612;50.894;10.700;2023-02-01T11:35:30;5.20;99.90
20528;DHT22;23612;50.894;10.700;2023-02-01T11:37:58;5.20;99.90
20528;DHT22;23612;50.894;10.700;2023-02-01T11:40:33;5.20;99.90
20528;DHT22;23612;50.894;10.700;2023-02-01T11:45:33;5.20;99.90
20528;DHT22;23612;50.894;10.700;2023-02-01T11:48:00;5.30;99.90
20528;DHT22;23612;50.894;10.700;2023-02-01T11:50:31;5.30;99.90
20528;DHT22;23612;50.894;10.700;2023-02-01T11:56:11;5.20;99.90
20528;DHT22;23612;50.894;10.700;2023-02-01T12:04:46;5.30;99.90
20528;DHT22;23612;50.894;10.700;2023-02-01T12:07:28;5.30;99.90
20528;DHT22;23612;50.894;10.700;2023-02-01T12:10:00;5.30;99.90
20528;DHT22;23612;50.894;10.700;2023-02-01T12:15:22;5.30;99.90
20528;DHT22;23612;50.894;10.700;2023-02-01T12:18:11;5.30;99.90
20528;DHT22;23612;50.894;10.700;2023-02-01T12:20:58;5.30;99.90
20528;DHT22;23612;50.894;10.700;2023-02-01T12:26:33;5.20;99.90
20528;DHT22;23612;50.894;10.700;2023-02-01T12:29:05;5.10;99.90
20528;DHT22;23612;50.894;10.700;2023-02-01T12:31:46;5.10;99.90
20528;DHT22;23612;50.894;10.700;2023-02-01T12:34:34;5.00;99.90
20528;DHT22;23612;50.894;10.700;2023-02-01T12:37:20;5.00;99.90
20528;DHT22;23612;50.894;10.700;2023-02-01T12:40:16;4.90;99.90
20528;DHT22;23612;50.894;10.700;2023-02-01T12:50:59;4.90;99.90
20528;DHT22;23612;50.894;10.700;2023-02-01T12:56:10;4.90;99.90
20528;DHT22;23612;50.894;10.700;2023-02-01T12:58:59;4.90;99.90
20528;DHT22;23612;50.894;10.700;2023-02-01T13:01:46;5.00;99.90
20528;DHT22;23612;50.894;10.700;2023-02-01T13:04:30;5.00;99.90
20528;DHT22;23612;50.894;10.700;2023-02-01T13:07:08;5.10;99.90
20528;DHT22;23612;50.894;10.700;2023-02-01T13:10:03;5.20;99.90
20528;DHT22;23612;50.894;10.700;2023-02-01T13:12:43;5.20;99.90
20528;DHT22;23612;50.894;10.700;2023-02-01T13:15:26;5.30;99.90
20528;DHT22;23612;50.894;10.700;2023-02-01T13:17:54;5.50;99.90
20528;DHT22;23612;50.894;10.700;2023-02-01T13:20:35;5.60;99.90
20528;DHT22;23612;50.894;10.700;2023-02-01T13:23:08;5.60;99.90
20528;DHT22;23612;50.894;10.700;2023-02-01T13:25:47;5.50;99.90
20528;DHT22;23612;50.894;10.700;2023-02-01T13:45:29;5.40;99.90
20528;DHT22;23612;50.894;10.700;2023-02-01T13:47:58;5.50;99.90
20528;DHT22;23612;50.894;10.700;2023-02-01T13:50:36;5.40;99.90
20528;DHT22;23612;50.894;10.700;2023-02-01T13:53:36;5.40;99.90
20528;DHT22;23612;50.894;10.700;2023-02-01T13:56:11;5.30;99.90
20528;DHT22;23612;50.894;10.700;2023-02-01T13:58:39;5.20;99.90
20528;DHT22;23612;50.894;10.700;2023-02-01T14:03:57;5.20;99.90
20528;DHT22;23612;50.894;10.700;2023-02-01T14:09:11;5.50;99.90
20528;DHT22;23612;50.894;10.700;2023-02-01T14:16:43;5.80;99.90
20528;DHT22;23612;50.894;10.700;2023-02-01T14:21:55;5.60;99.90
20528;DHT22;23612;50.894;10.700;2023-02-01T14:24:29;5.40;99.90
20528;DHT22;23612;50.894;10.700;2023-02-01T14:27:00;5.30;99.90
20528;DHT22;23612;50.894;10.700;2023-02-01T14:29:42;5.20;99.90
20528;DHT22;23612;50.894;10.700;2023-02-01T14:32:19;5.10;99.90
20528;DHT22;23612;50.894;10.700;2023-02-01T14:37:24;5.10;99.90
20528;DHT22;23612;50.894;10.700;2023-02-01T14:40:03;5.10;99.90
20528;DHT22;23612;50.894;10.700;2023-02-01T14:42:51;5.00;99.90
20528;DHT22;23612;50.894;10.700;2023-02-01T15:00:56;4.80;99.90
20528;DHT22;23612;50.894;10.700;2023-02-01T15:06:29;4.80;99.90
20528;DHT22;23612;50.894;10.700;2023-02-01T15:09:02;4.80;99.90
20528;DHT22;23612;50.894;10.700;2023-02-01T15:11:28;4.80;99.90
20528;DHT22;23612;50.894;10.700;2023-02-01T15:13:54;4.70;99.90
20528;DHT22;23612;50.894;10.700;2023-02-01T15:16:23;4.70;99.90
20528;DHT22;23612;50.894;10.700;2023-02-01T15:18:49;4.70;99.90
20528;DHT22;23612;50.894;10.700;2023-02-01T15:21:18;4.60;99.90
20528;DHT22;23612;50.894;10.700;2023-02-01T15:23:44;4.60;99.90
20528;DHT22;23612;50.894;10.700;2023-02-01T15:26:25;4.60;99.90
20528;DHT22;23612;50.894;10.700;2023-02-01T15:28:51;4.60;99.90
20528;DHT22;23612;50.894;10.700;2023-02-01T15:31:32;4.70;99.90
20528;DHT22;23612;50.894;10.700;2023-02-01T15:33:58;4.70;99.90
20528;DHT22;23612;50.894;10.700;2023-02-01T15:36:24;4.80;99.90
20528;DHT22;23612;50.894;10.700;2023-02-01T15:39:31;4.80;99.90
20528;DHT22;23612;50.894;10.700;2023-02-01T15:41:59;4.80;99.90
20528;DHT22;23612;50.894;10.700;2023-02-01T15:44:42;4.90;99.90
20528;DHT22;23612;50.894;10.700;2023-02-01T15:47:23;4.90;99.90
20528;DHT22;23612;50.894;10.700;2023-02-01T15:49:59;4.90;99.90
20528;DHT22;23612;50.894;10.700;2023-02-01T15:52:34;4.90;99.90
20528;DHT22;23612;50.894;10.700;2023-02-01T15:55:17;4.90;99.90
20528;DHT22;23612;50.894;10.700;2023-02-01T15:57:43;4.90;99.90
20528;DHT22;23612;50.894;10.700;2023-02-01T16:03:05;4.90;99.90
20528;DHT22;23612;50.894;10.700;2023-02-01T16:05:39;4.90;99.90
20528;DHT22;23612;50.894;10.700;2023-02-01T16:08:22;4.90;99.90
20528;DHT22;23612;50.894;10.700;2023-02-01T16:10:50;4.80;99.90
20528;DHT22;23612;50.894;10.700;2023-02-01T16:13:19;4.80;99.90
20528;DHT22;23612;50.894;10.700;2023-02-01T16:15:46;4.80;99.90
20528;DHT22;23612;50.894;10.700;2023-02-01T16:18:13;4.80;99.90
20528;DHT22;23612;50.894;10.700;2023-02-01T16:20:40;4.80;99.90
20528;DHT22;23612;50.894;10.700;2023-02-01T16:23:06;4.80;99.90
20528;DHT22;23612;50.894;10.700;2023-02-01T16:25:32;4.90;99.90
20528;DHT22;23612;50.894;10.700;2023-02-01T16:27:58;4.80;99.90
20528;DHT22;23612;50.894;10.700;2023-02-01T16:30:24;4.70;99.90
20528;DHT22;23612;50.894;10.700;2023-02-01T16:32:53;4.60;99.90
20528;DHT22;23612;50.894;10.700;2023-02-01T16:35:25;4.60;99.90
20528;DHT22;23612;50.894;10.700;2023-02-01T16:37:51;4.60;99.90
20528;DHT22;23612;50.894;10.700;2023-02-01T16:40:18;4.60;99.90
20528;DHT22;23612;50.894;10.700;2023-02-01T16:42:46;4.70;99.90
20528;DHT22;23612;50.894;10.700;2023-02-01T16:45:13;4.70;99.90
20528;DHT22;23612;50.894;10.700;2023-02-01T16:47:40;4.70;99.90
20528;DHT22;23612;50.894;10.700;2023-02-01T16:50:16;4.70;99.90
20528;DHT22;23612;50.894;10.700;2023-02-01T16:52:42;4.70;99.90
20528;DHT22;23612;50.894;10.700;2023-02-01T16:55:12;4.60;99.90
20528;DHT22;23612;50.894;10.700;2023-02-01T16:57:38;4.60;99.90
20528;DHT22;23612;50.894;10.700;2023-02-01T17:00:04;4.50;99.90
20528;DHT22;23612;50.894;10.700;2023-02-01T17:02:30;4.50;99.90
20528;DHT22;23612;50.894;10.700;2023-02-01T17:04:56;4.50;99.90
20528;DHT22;23612;50.894;10.700;2023-02-01T17:07:21;4.50;99.90
20528;DHT22;23612;50.894;10.700;2023-02-01T17:09:47;4.50;99.90
20528;DHT22;23612;50.894;10.700;2023-02-01T17:12:33;4.50;99.90
20528;DHT22;23612;50.894;10.700;2023-02-01T17:14:59;4.50;99.90
20528;DHT22;23612;50.894;10.700;2023-02-01T17:17:29;4.50;99.90
20528;DHT22;23612;50.894;10.700;2023-02-01T17:19:55;4.60;99.90
20528;DHT22;23612;50.894;10.700;2023-02-01T17:22:21;4.50;99.90
20528;DHT22;23612;50.894;10.700;2023-02-01T17:24:47;4.50;99.90
20528;DHT22;23612;50.894;10.700;2023-02-01T17:27:13;4.50;99.90
20528;DHT22;23612;50.894;10.700;2023-02-01T17:29:39;4.50;99.90
20528;DHT22;23612;50.894;10.700;2023-02-01T17:32:16;4.60;99.90
20528;DHT22;23612;50.894;10.700;2023-02-01T17:34:42;4.60;99.90
20528;DHT22;23612;50.894;10.700;2023-02-01T17:37:27;4.50;99.90
20528;DHT22;23612;50.894;10.700;2023-02-01T17:39:53;4.50;99.90
20528;DHT22;23612;50.894;10.700;2023-02-01T17:42:19;4.50;99.90
20528;DHT22;23612;50.894;10.700;2023-02-01T17:44:44;4.50;99.90
20528;DHT22;23612;50.894;10.700;2023-02-01T17:47:10;4.40;99.90
20528;DHT22;23612;50.894;10.700;2023-02-01T17:49:35;4.40;99.90
20528;DHT22;23612;50.894;10.700;2023-02-01T17:52:07;4.30;99.90
20528;DHT22;23612;50.894;10.700;2023-02-01T17:54:33;4.30;99.90
20528;DHT22;23612;50.894;10.700;2023-02-01T17:56:59;4.50;99.90
20528;DHT22;23612;50.894;10.700;2023-02-01T17:59:27;4.50;99.90